createdAt,value
2019-01-09T00:02:15.273Z,3.20
2019-01-09T00:04:42.200Z,3.10
2019-01-09T00:07:09.164Z,3.10
2019-01-09T00:09:36.160Z,3.00
2019-01-09T00:12:03.306Z,2.90
2019-01-09T00:16:57.154Z,3.00
2019-01-09T00:19:36.268Z,3.00
2019-01-09T00:22:03.908Z,3.00
2019-01-09T00:24:31.160Z,2.90
2019-01-09T00:26:58.030Z,2.90
2019-01-09T00:29:24.899Z,3.00
2019-01-09T00:31:52.026Z,3.00
2019-01-09T00:34:18.989Z,3.00
2019-01-09T00:36:45.961Z,3.00
2019-01-09T00:39:12.949Z,3.00
2019-01-09T00:41:39.905Z,3.10
2019-01-09T00:44:06.871Z,3.20
2019-01-09T00:46:33.729Z,3.10
2019-01-09T00:49:00.595Z,3.10
2019-01-09T00:51:27.548Z,3.10
2019-01-09T00:53:54.557Z,3.10
2019-01-09T00:56:21.872Z,3.10
2019-01-09T00:58:49.114Z,3.10
2019-01-09T01:01:15.972Z,3.00
2019-01-09T01:04:23.727Z,3.10
2019-01-09T01:10:27.581Z,3.20
2019-01-09T01:13:30.343Z,3.10
2019-01-09T01:16:27.045Z,3.10
2019-01-09T01:19:30.266Z,3.10
2019-01-09T01:22:06.705Z,3.20
2019-01-09T01:25:06.587Z,3.10
2019-01-09T01:28:05.559Z,3.10
2019-01-09T01:31:13.566Z,2.90
2019-01-09T01:34:12.220Z,2.90
2019-01-09T01:37:18.548Z,2.90
2019-01-09T01:40:23.282Z,2.90
2019-01-09T01:43:16.313Z,2.80
2019-01-09T01:46:09.303Z,2.90
2019-01-09T01:48:48.637Z,3.00
2019-01-09T01:51:57.207Z,2.90
2019-01-09T01:54:55.870Z,2.80
2019-01-09T01:57:45.989Z,2.80
2019-01-09T02:00:28.285Z,2.90
2019-01-09T02:06:38.460Z,2.90
2019-01-09T02:09:45.463Z,3.00
2019-01-09T02:12:47.050Z,2.90
2019-01-09T02:15:42.916Z,2.90
2019-01-09T02:18:16.112Z,2.80
2019-01-09T02:21:04.731Z,2.80
2019-01-09T02:24:00.420Z,2.80
2019-01-09T02:30:35.390Z,2.70
2019-01-09T02:33:02.396Z,2.60
2019-01-09T02:35:29.284Z,2.60
2019-01-09T02:37:56.418Z,2.50
2019-01-09T02:40:23.342Z,2.50
2019-01-09T02:42:50.106Z,2.50
2019-01-09T02:45:16.852Z,2.50
2019-01-09T02:47:43.722Z,2.40
2019-01-09T02:50:10.672Z,2.40
2019-01-09T02:52:37.526Z,2.40
2019-01-09T02:55:05.791Z,2.20
2019-01-09T02:57:32.553Z,2.30
2019-01-09T02:59:59.736Z,2.20
2019-01-09T03:02:26.809Z,2.30
2019-01-09T03:04:53.572Z,2.30
2019-01-09T03:07:20.588Z,2.10
2019-01-09T03:09:48.212Z,2.20
2019-01-09T03:14:41.989Z,2.60
2019-01-09T03:17:08.757Z,2.30
2019-01-09T03:19:35.520Z,2.30
2019-01-09T03:22:02.721Z,2.40
2019-01-09T03:24:29.689Z,2.40
2019-01-09T03:26:56.537Z,2.30
2019-01-09T03:29:23.520Z,2.30
2019-01-09T03:31:50.464Z,2.30
2019-01-09T03:34:17.504Z,2.40
2019-01-09T03:36:44.481Z,2.30
2019-01-09T03:39:11.341Z,2.30
2019-01-09T03:41:38.205Z,2.30
2019-01-09T03:44:05.147Z,2.20
2019-01-09T03:46:32.400Z,2.30
2019-01-09T03:48:59.403Z,2.20
2019-01-09T03:51:26.504Z,2.20
2019-01-09T03:53:53.253Z,2.30
2019-01-09T03:56:20.057Z,2.20
2019-01-09T03:58:47.142Z,2.20
2019-01-09T04:01:14.107Z,2.10
2019-01-09T04:03:40.952Z,2.10
2019-01-09T04:06:08.741Z,2.20
2019-01-09T04:08:35.766Z,2.30
2019-01-09T04:11:02.762Z,2.30
2019-01-09T04:13:29.519Z,2.20
2019-01-09T04:15:56.384Z,2.30
2019-01-09T04:18:23.321Z,2.30
2019-01-09T04:20:50.178Z,2.40
2019-01-09T04:23:16.950Z,2.30
2019-01-09T04:25:43.724Z,2.20
2019-01-09T04:28:10.616Z,2.30
2019-01-09T04:30:37.720Z,2.40
2019-01-09T04:33:04.727Z,2.30
2019-01-09T04:35:31.586Z,2.30
2019-01-09T04:37:58.352Z,2.50
2019-01-09T04:40:25.220Z,1.50
2019-01-09T04:42:52.267Z,2.40
2019-01-09T04:45:19.017Z,2.40
2019-01-09T04:47:46.138Z,2.40
2019-01-09T04:50:12.911Z,2.30
2019-01-09T04:52:39.667Z,2.30
2019-01-09T04:55:06.529Z,2.20
2019-01-09T04:57:33.296Z,2.20
2019-01-09T05:00:00.236Z,2.20
2019-01-09T05:02:27.013Z,2.20
2019-01-09T05:04:54.201Z,2.20
2019-01-09T05:07:21.213Z,2.30
2019-01-09T05:09:48.000Z,2.30
2019-01-09T05:12:15.127Z,2.30
2019-01-09T05:14:41.983Z,2.20
2019-01-09T05:17:08.753Z,2.20
2019-01-09T05:19:35.941Z,2.20
2019-01-09T05:22:03.102Z,2.20
2019-01-09T05:24:29.868Z,2.10
2019-01-09T05:26:56.997Z,2.20
2019-01-09T05:29:30.722Z,2.00
2019-01-09T05:32:01.873Z,1.90
2019-01-09T05:34:28.652Z,1.50
2019-01-09T05:36:57.921Z,1.00
2019-01-09T05:39:24.786Z,0.90
2019-01-09T05:41:51.529Z,0.90
2019-01-09T05:44:18.389Z,0.90
2019-01-09T05:46:45.515Z,0.90
2019-01-09T05:49:12.533Z,1.00
2019-01-09T05:51:39.309Z,1.00
2019-01-09T05:54:06.304Z,1.00
2019-01-09T05:56:33.054Z,1.00
2019-01-09T05:58:59.918Z,1.10
2019-01-09T06:01:26.908Z,1.20
2019-01-09T06:03:53.769Z,1.10
2019-01-09T06:06:20.628Z,1.10
2019-01-09T06:08:47.422Z,1.20
2019-01-09T06:11:14.468Z,1.10
2019-01-09T06:13:41.450Z,1.20
2019-01-09T06:16:11.691Z,1.20
2019-01-09T06:18:38.461Z,1.30
2019-01-09T06:21:05.217Z,1.30
2019-01-09T06:23:32.073Z,1.40
2019-01-09T06:25:58.934Z,1.40
2019-01-09T06:28:25.925Z,1.40
2019-01-09T06:30:52.883Z,1.30
2019-01-09T06:33:19.954Z,1.40
2019-01-09T06:35:46.932Z,1.40
2019-01-09T06:38:14.026Z,1.40
2019-01-09T06:40:41.340Z,1.40
2019-01-09T06:43:08.116Z,1.30
2019-01-09T06:45:34.983Z,1.20
2019-01-09T06:48:01.801Z,1.20
2019-01-09T06:50:28.553Z,1.20
2019-01-09T06:52:55.441Z,1.20
2019-01-09T06:55:22.195Z,1.20
2019-01-09T06:57:49.185Z,1.20
2019-01-09T07:00:16.035Z,1.20
2019-01-09T07:02:42.949Z,1.10
2019-01-09T07:05:09.893Z,1.10
2019-01-09T07:07:36.782Z,1.10
2019-01-09T07:10:03.760Z,1.10
2019-01-09T07:12:30.713Z,1.10
2019-01-09T07:14:57.580Z,1.00
2019-01-09T07:17:24.448Z,0.90
2019-01-09T07:19:51.317Z,0.90
2019-01-09T07:22:18.164Z,0.90
2019-01-09T07:24:45.176Z,0.80
2019-01-09T07:27:11.996Z,0.70
2019-01-09T07:29:39.230Z,0.80
2019-01-09T07:32:06.081Z,0.70
2019-01-09T07:34:33.080Z,0.70
2019-01-09T07:37:00.141Z,0.80
2019-01-09T07:39:27.009Z,0.80
2019-01-09T07:41:53.896Z,0.80
2019-01-09T07:44:21.040Z,0.80
2019-01-09T07:46:48.023Z,0.80
2019-01-09T07:49:14.773Z,0.90
2019-01-09T07:51:41.646Z,0.80
2019-01-09T07:54:08.416Z,0.80
2019-01-09T07:56:35.272Z,0.80
2019-01-09T07:59:02.037Z,0.80
2019-01-09T08:01:28.809Z,0.80
2019-01-09T08:03:55.562Z,0.80
2019-01-09T08:06:22.570Z,0.70
2019-01-09T08:08:49.341Z,0.80
2019-01-09T08:11:16.128Z,0.80
2019-01-09T08:13:42.980Z,0.80
2019-01-09T08:16:09.985Z,0.90
2019-01-09T08:18:36.726Z,0.90
2019-01-09T08:21:05.439Z,0.80
2019-01-09T08:23:32.573Z,0.70
2019-01-09T08:25:59.325Z,0.80
2019-01-09T08:28:26.186Z,0.80
2019-01-09T08:30:52.940Z,0.90
2019-01-09T08:33:19.960Z,0.90
2019-01-09T08:35:46.820Z,0.80
2019-01-09T08:38:13.595Z,0.90
2019-01-09T08:40:40.672Z,0.80
2019-01-09T08:43:07.692Z,1.00
2019-01-09T08:45:34.840Z,1.00
2019-01-09T08:48:01.980Z,1.00
2019-01-09T08:50:28.901Z,0.90
2019-01-09T08:52:55.765Z,1.00
2019-01-09T08:55:22.624Z,0.90
2019-01-09T08:57:49.397Z,1.00
2019-01-09T09:00:16.248Z,0.80
2019-01-09T09:02:43.005Z,0.90
2019-01-09T09:05:09.970Z,0.90
2019-01-09T09:07:39.485Z,0.90
2019-01-09T09:10:08.628Z,1.00
2019-01-09T09:12:35.496Z,1.00
2019-01-09T09:15:03.202Z,1.00
2019-01-09T09:17:29.961Z,1.00
2019-01-09T09:19:56.711Z,1.10
2019-01-09T09:22:23.688Z,1.20
2019-01-09T09:24:50.433Z,1.20
2019-01-09T09:27:17.281Z,1.10
2019-01-09T09:29:44.396Z,1.10
2019-01-09T09:32:11.240Z,1.20
2019-01-09T09:34:38.025Z,1.20
2019-01-09T09:37:05.113Z,1.20
2019-01-09T09:39:31.966Z,1.30
2019-01-09T09:41:58.830Z,1.30
2019-01-09T09:44:25.709Z,1.30
2019-01-09T09:46:52.568Z,1.30
2019-01-09T09:49:19.342Z,1.40
2019-01-09T09:51:46.181Z,1.50
2019-01-09T09:54:13.265Z,1.70
2019-01-09T09:56:40.264Z,1.70
2019-01-09T09:59:07.129Z,1.70
2019-01-09T10:01:33.905Z,1.60
2019-01-09T10:04:00.866Z,1.40
2019-01-09T10:06:27.876Z,1.40
2019-01-09T10:08:54.673Z,1.50
2019-01-09T10:11:21.517Z,1.40
2019-01-09T10:13:48.372Z,1.40
2019-01-09T10:16:15.145Z,1.40
2019-01-09T10:18:42.136Z,1.50
2019-01-09T10:21:08.899Z,1.60
2019-01-09T10:23:35.721Z,1.50
2019-01-09T10:26:03.012Z,1.60
2019-01-09T10:28:29.777Z,1.60
2019-01-09T10:30:56.652Z,1.50
2019-01-09T10:33:23.397Z,1.50
2019-01-09T10:35:50.172Z,1.50
2019-01-09T10:38:16.920Z,1.40
2019-01-09T10:40:43.726Z,1.40
2019-01-09T10:43:10.721Z,1.50
2019-01-09T10:45:37.498Z,1.60
2019-01-09T10:48:04.457Z,1.40
2019-01-09T10:50:31.430Z,1.60
2019-01-09T10:52:58.172Z,1.60
2019-01-09T10:55:25.313Z,1.60
2019-01-09T10:57:52.183Z,1.50
2019-01-09T11:00:21.152Z,1.50
2019-01-09T11:02:48.380Z,1.60
2019-01-09T11:05:15.360Z,1.40
2019-01-09T11:07:42.213Z,1.30
2019-01-09T11:10:09.717Z,1.50
2019-01-09T11:12:36.587Z,1.50
2019-01-09T11:15:04.629Z,1.50
2019-01-09T11:17:31.394Z,1.60
2019-01-09T11:19:58.493Z,1.50
2019-01-09T11:22:25.517Z,1.50
2019-01-09T11:24:52.394Z,1.40
2019-01-09T11:27:19.145Z,1.50
2019-01-09T11:29:45.988Z,1.60
2019-01-09T11:32:12.742Z,1.80
2019-01-09T11:34:39.490Z,1.60
2019-01-09T11:37:06.253Z,1.60
2019-01-09T11:39:33.357Z,1.70
2019-01-09T11:42:00.249Z,1.50
2019-01-09T11:44:27.272Z,1.70
2019-01-09T11:46:54.249Z,1.50
2019-01-09T11:49:21.219Z,1.70
2019-01-09T11:51:47.986Z,1.60
2019-01-09T11:54:14.735Z,1.50
2019-01-09T11:56:41.486Z,1.40
2019-01-09T11:59:08.612Z,1.30
2019-01-09T12:01:35.380Z,1.20
2019-01-09T12:04:02.489Z,1.20
2019-01-09T12:06:29.404Z,1.20
2019-01-09T12:09:04.312Z,1.20
2019-01-09T12:11:25.009Z,1.30
2019-01-09T12:13:53.322Z,1.30
2019-01-09T12:16:20.321Z,1.30
2019-01-09T12:18:47.106Z,1.50
2019-01-09T12:21:16.697Z,1.40
2019-01-09T12:23:42.752Z,1.40
2019-01-09T12:26:09.650Z,1.40
2019-01-09T12:28:36.469Z,1.40
2019-01-09T12:31:03.492Z,1.40
2019-01-09T12:33:30.516Z,1.20
2019-01-09T12:35:57.265Z,1.20
2019-01-09T12:38:24.073Z,1.30
2019-01-09T12:40:50.831Z,1.20
2019-01-09T12:43:17.681Z,1.20
2019-01-09T12:45:44.559Z,1.30
2019-01-09T12:48:11.644Z,1.20
2019-01-09T12:50:38.396Z,1.20
2019-01-09T12:53:05.154Z,1.40
2019-01-09T12:55:31.901Z,1.30
2019-01-09T12:57:59.016Z,1.30
2019-01-09T13:00:27.558Z,1.30
2019-01-09T13:02:54.405Z,1.30
2019-01-09T13:05:21.481Z,1.20
2019-01-09T13:07:48.525Z,1.30
2019-01-09T13:10:15.380Z,1.30
2019-01-09T13:12:42.373Z,1.30
2019-01-09T13:15:09.856Z,1.20
2019-01-09T13:17:36.736Z,1.20
2019-01-09T13:20:05.409Z,1.10
2019-01-09T13:22:32.165Z,1.10
2019-01-09T13:24:59.134Z,0.80
2019-01-09T13:27:26.029Z,0.70
2019-01-09T13:29:52.895Z,0.70
2019-01-09T13:32:19.665Z,0.80
2019-01-09T13:34:46.504Z,0.70
2019-01-09T13:37:13.265Z,0.70
2019-01-09T13:39:40.104Z,0.80
2019-01-09T13:42:07.120Z,0.70
2019-01-09T13:44:33.963Z,0.70
2019-01-09T13:47:00.950Z,0.50
2019-01-09T13:49:27.833Z,0.60
2019-01-09T13:51:54.607Z,0.80
2019-01-09T13:54:21.555Z,0.70
2019-01-09T13:56:48.404Z,0.60
2019-01-09T13:59:15.509Z,0.60
2019-01-09T14:01:42.565Z,0.50
2019-01-09T14:04:09.622Z,0.60
2019-01-09T14:06:36.545Z,0.50
2019-01-09T14:09:06.769Z,0.50
2019-01-09T14:11:33.560Z,0.50
2019-01-09T14:14:00.985Z,0.40
2019-01-09T14:16:27.754Z,0.50
2019-01-09T14:18:55.408Z,0.50
2019-01-09T14:21:22.661Z,0.40
2019-01-09T14:23:49.419Z,0.40
2019-01-09T14:26:16.513Z,0.40
2019-01-09T14:28:43.282Z,0.30
2019-01-09T14:31:10.354Z,0.30
2019-01-09T14:33:37.208Z,0.20
2019-01-09T14:36:04.474Z,0.20
2019-01-09T14:38:31.432Z,0.30
2019-01-09T14:40:58.307Z,0.30
2019-01-09T14:43:25.160Z,0.40
2019-01-09T14:45:51.933Z,0.40
2019-01-09T14:48:18.917Z,0.30
2019-01-09T14:50:47.569Z,0.50
2019-01-09T14:53:14.570Z,0.50
2019-01-09T14:55:41.485Z,0.40
2019-01-09T14:58:08.254Z,0.30
2019-01-09T15:00:35.579Z,0.30
2019-01-09T15:03:02.676Z,0.40
2019-01-09T15:05:29.963Z,0.50
2019-01-09T15:07:56.920Z,0.30
2019-01-09T15:10:26.133Z,0.40
2019-01-09T15:12:53.115Z,0.40
2019-01-09T15:15:20.512Z,0.50
2019-01-09T15:17:47.741Z,0.40
2019-01-09T15:20:15.941Z,0.40
2019-01-09T15:22:42.895Z,0.40
2019-01-09T15:25:09.886Z,0.40
2019-01-09T15:27:36.835Z,0.40
2019-01-09T15:30:06.692Z,0.40
2019-01-09T15:32:34.284Z,0.40
2019-01-09T15:35:01.181Z,0.40
2019-01-09T15:37:28.293Z,0.40
2019-01-09T15:39:55.591Z,0.30
2019-01-09T15:42:22.564Z,0.40
2019-01-09T15:44:49.520Z,0.40
2019-01-09T15:47:16.541Z,0.30
2019-01-09T15:49:43.504Z,0.30
2019-01-09T15:55:51.121Z,0.30
2019-01-09T15:58:17.961Z,0.30
2019-01-09T16:00:46.997Z,0.30
2019-01-09T16:03:14.439Z,0.30
2019-01-09T16:05:41.644Z,0.20
2019-01-09T16:08:09.547Z,0.30
2019-01-09T16:10:36.421Z,0.30
2019-01-09T16:13:03.323Z,0.30
2019-01-09T16:15:30.296Z,0.20
2019-01-09T16:17:57.513Z,0.20
2019-01-09T16:20:24.386Z,0.20
2019-01-09T16:22:51.449Z,0.20
2019-01-09T16:25:18.503Z,0.20
2019-01-09T16:27:45.551Z,0.30
2019-01-09T16:30:18.418Z,0.30
2019-01-09T16:32:45.361Z,0.20
2019-01-09T16:35:12.281Z,0.20
2019-01-09T16:37:39.135Z,0.20
2019-01-09T16:40:07.613Z,0.10
2019-01-09T16:42:34.380Z,0.20
2019-01-09T16:45:01.324Z,0.20
2019-01-09T16:47:28.420Z,0.20
2019-01-09T16:49:55.261Z,0.20
2019-01-09T16:52:22.034Z,0.20
2019-01-09T16:54:48.808Z,0.20
2019-01-09T16:57:15.646Z,0.20
2019-01-09T16:59:42.626Z,0.20
2019-01-09T17:02:09.910Z,0.20
2019-01-09T17:04:36.849Z,0.30
2019-01-09T17:07:03.828Z,0.30
2019-01-09T17:09:30.721Z,0.30
2019-01-09T17:11:57.553Z,0.30
2019-01-09T17:14:24.311Z,0.30
2019-01-09T17:16:51.585Z,0.30
2019-01-09T17:19:18.601Z,0.30
2019-01-09T17:21:45.565Z,0.30
2019-01-09T17:24:12.322Z,0.30
2019-01-09T17:26:39.206Z,0.30
2019-01-09T17:29:06.542Z,0.30
2019-01-09T17:31:33.682Z,0.30
2019-01-09T17:34:01.481Z,0.30
2019-01-09T17:36:28.720Z,0.20
2019-01-09T17:38:55.733Z,0.30
2019-01-09T17:41:22.989Z,0.30
2019-01-09T17:43:49.736Z,0.20
2019-01-09T17:46:16.607Z,0.30
2019-01-09T17:48:44.786Z,0.30
2019-01-09T17:51:11.712Z,0.20
2019-01-09T17:53:38.744Z,0.20
2019-01-09T17:56:05.747Z,0.30
2019-01-09T17:58:32.794Z,0.20
2019-01-09T18:00:59.660Z,0.20
2019-01-09T18:03:26.522Z,0.20
2019-01-09T18:05:53.464Z,0.30
2019-01-09T18:08:20.566Z,0.30
2019-01-09T18:10:50.324Z,0.40
2019-01-09T18:13:16.683Z,0.30
2019-01-09T18:15:43.881Z,0.30
2019-01-09T18:18:10.859Z,0.30
2019-01-09T18:20:37.785Z,0.30
2019-01-09T18:23:05.077Z,0.20
2019-01-09T18:25:31.924Z,0.30
2019-01-09T18:27:58.672Z,0.30
2019-01-09T18:30:31.455Z,0.20
2019-01-09T18:33:05.021Z,0.20
2019-01-09T18:35:40.393Z,0.20
2019-01-09T18:38:31.980Z,0.20
2019-01-09T18:41:50.041Z,0.20
2019-01-09T18:44:25.354Z,0.20
2019-01-09T18:47:19.572Z,0.20
2019-01-09T18:50:38.922Z,0.20
2019-01-09T18:53:31.552Z,0.10
2019-01-09T18:55:58.626Z,0.30
2019-01-09T18:58:25.560Z,0.20
2019-01-09T19:00:52.600Z,0.30
2019-01-09T19:03:19.707Z,0.20
2019-01-09T19:05:46.578Z,0.20
2019-01-09T19:08:13.670Z,0.20
2019-01-09T19:10:41.034Z,0.30
2019-01-09T19:13:07.909Z,0.20
2019-01-09T19:15:35.340Z,0.20
2019-01-09T19:18:02.711Z,0.20
2019-01-09T19:20:29.641Z,0.20
2019-01-09T19:22:56.943Z,0.20
2019-01-09T19:25:24.129Z,0.30
2019-01-09T19:27:51.422Z,0.20
2019-01-09T19:30:24.618Z,0.20
2019-01-09T19:32:52.409Z,0.30
2019-01-09T19:35:19.492Z,0.30
2019-01-09T19:37:46.674Z,0.30
2019-01-09T19:40:13.834Z,0.30
2019-01-09T19:42:40.850Z,0.30
2019-01-09T19:45:09.537Z,0.30
2019-01-09T19:47:36.530Z,0.30
2019-01-09T19:50:04.434Z,0.30
2019-01-09T19:52:31.438Z,0.30
2019-01-09T19:54:58.317Z,0.30
2019-01-09T19:57:25.175Z,0.30
2019-01-09T19:59:52.050Z,0.30
2019-01-09T20:02:19.028Z,0.30
2019-01-09T20:04:45.913Z,0.30
2019-01-09T20:07:12.944Z,0.40
2019-01-09T20:09:39.932Z,0.40
2019-01-09T20:12:06.877Z,0.30
2019-01-09T20:14:34.147Z,0.40
2019-01-09T20:17:01.431Z,0.40
2019-01-09T20:19:28.462Z,0.40
2019-01-09T20:21:56.016Z,0.40
2019-01-09T20:24:23.224Z,0.30
2019-01-09T20:26:50.322Z,0.30
2019-01-09T20:29:17.568Z,0.40
2019-01-09T20:31:44.394Z,0.30
2019-01-09T20:34:11.607Z,0.30
2019-01-09T20:36:38.848Z,0.40
2019-01-09T20:39:07.933Z,0.40
2019-01-09T20:41:35.579Z,0.40
2019-01-09T20:44:03.238Z,0.40
2019-01-09T20:46:30.499Z,0.40
2019-01-09T20:48:57.793Z,0.40
2019-01-09T20:51:25.061Z,0.30
2019-01-09T20:53:52.252Z,0.40
2019-01-09T20:56:19.417Z,0.40
2019-01-09T20:58:46.804Z,0.40
2019-01-09T21:01:13.713Z,0.40
2019-01-09T21:03:40.685Z,0.30
2019-01-09T21:06:07.784Z,0.30
2019-01-09T21:08:34.684Z,0.40
2019-01-09T21:11:01.773Z,0.40
2019-01-09T21:13:28.926Z,0.40
2019-01-09T21:15:55.831Z,0.50
2019-01-09T21:18:22.728Z,0.40
2019-01-09T21:20:49.772Z,0.50
2019-01-09T21:23:17.012Z,0.40
2019-01-09T21:25:43.890Z,0.40
2019-01-09T21:28:10.993Z,0.40
2019-01-09T21:30:37.972Z,0.40
2019-01-09T21:33:05.396Z,0.40
2019-01-09T21:35:32.429Z,0.40
2019-01-09T21:37:59.416Z,0.30
2019-01-09T21:40:27.693Z,0.30
2019-01-09T21:42:54.725Z,0.40
2019-01-09T21:45:21.800Z,0.40
2019-01-09T21:47:49.075Z,0.50
2019-01-09T21:50:16.641Z,0.40
2019-01-09T21:52:44.173Z,0.30
2019-01-09T21:55:12.137Z,0.30
2019-01-09T21:57:39.381Z,0.40
2019-01-09T22:00:11.091Z,0.40
2019-01-09T22:02:38.102Z,0.40
2019-01-09T22:05:05.282Z,0.40
2019-01-09T22:07:32.229Z,0.40
2019-01-09T22:09:59.343Z,0.40
2019-01-09T22:12:26.309Z,0.30
2019-01-09T22:14:53.183Z,0.40
2019-01-09T22:17:20.074Z,0.50
2019-01-09T22:19:47.063Z,0.40
2019-01-09T22:22:14.231Z,0.30
2019-01-09T22:24:41.076Z,0.40
2019-01-09T22:27:08.029Z,0.40
2019-01-09T22:29:35.080Z,0.50
2019-01-09T22:32:01.838Z,0.30
2019-01-09T22:34:28.821Z,0.30
2019-01-09T22:36:55.675Z,0.20
2019-01-09T22:39:22.430Z,0.30
2019-01-09T22:41:49.185Z,0.40
2019-01-09T22:44:16.069Z,0.30
2019-01-09T22:46:42.921Z,0.40
2019-01-09T22:49:10.423Z,0.40
2019-01-09T22:51:37.449Z,0.40
2019-01-09T22:54:04.577Z,0.30
2019-01-09T22:56:31.580Z,0.40
2019-01-09T22:58:58.336Z,0.30
2019-01-09T23:01:26.876Z,0.30
2019-01-09T23:03:54.550Z,0.40
2019-01-09T23:06:21.701Z,0.40
2019-01-09T23:08:48.549Z,0.40
2019-01-09T23:11:15.424Z,0.40
2019-01-09T23:13:42.366Z,0.30
2019-01-09T23:16:09.628Z,0.40
2019-01-09T23:18:37.036Z,0.50
2019-01-09T23:21:04.560Z,0.40
2019-01-09T23:23:31.506Z,0.50
2019-01-09T23:25:58.368Z,0.40
2019-01-09T23:28:25.309Z,0.40
2019-01-09T23:30:52.334Z,0.40
2019-01-09T23:33:19.331Z,0.40
2019-01-09T23:35:46.320Z,0.30
2019-01-09T23:38:13.169Z,0.30
2019-01-09T23:40:40.356Z,0.40
2019-01-09T23:43:07.254Z,0.40
2019-01-09T23:45:34.373Z,0.40
2019-01-09T23:48:01.187Z,0.30
2019-01-09T23:50:28.033Z,0.30
2019-01-09T23:52:54.993Z,0.30
2019-01-09T23:55:22.178Z,0.40
2019-01-09T23:57:49.282Z,0.50
